Quentin, Pennsylvania
Current Conditions -  °F | °C
As of 11:58 AM on Sunday 21 Dec 2014 (Local Time) from KMUI Reporting Station
Overcast Overcast  
Wind Chill: 27°   Ceiling: 2600
Heat Index: 33°   Visibility: 10mi
Dew Point: 21°   Wind: 6mph
Humidity: 64%   Direction: 20°NNE
Pressure: 30.32"   Gusts: NA
Location:  40.28°N, 76.44°W
Report Text: KMUI 211658Z AUTO 02005KT 10SM OVC026 00/M06 A3032 RMK AO2 SLP276 T00031059
Loading
Personal Weather Stations






























Interactive Weather Map New forecast layout! Learn more

10-Day Weather Forecast

Advertisements
Track Severe Weather on mobile